Time;durP1;ratioP1;P1;durP2;ratioP2;P2;SDS_P1;SDS_P2;PMS_P1;PMS_P2;Temp;Humidity;BMP_temperature;BMP_pressure;BME280_temperature;BME280_humidity;BME280_pressure;Samples;Min_cycle;Max_cycle;Signal;HPM_P1;HPM_P2
2023/07/11 00:00:44;;;;;;;4.00;3.70;;;24.30;67.20;;;;;;5008557;28;20192;-73
2023/07/11 00:03:11;;;;;;;4.30;3.90;;;24.30;67.20;;;;;;5008391;28;20216;-73
2023/07/11 00:05:37;;;;;;;4.22;3.83;;;24.20;67.10;;;;;;5042189;28;20229;-73
2023/07/11 00:08:04;;;;;;;3.97;3.67;;;24.30;67.30;;;;;;5041840;28;20209;-73
2023/07/11 00:10:31;;;;;;;3.90;3.60;;;24.20;67.10;;;;;;5021730;28;20187;-73
2023/07/11 00:12:56;;;;;;;3.90;3.60;;;24.30;67.20;;;;;;5020824;28;20191;-73
2023/07/11 00:15:23;;;;;;;4.10;3.80;;;24.20;67.10;;;;;;5016482;28;20224;-73
2023/07/11 00:17:49;;;;;;;4.35;3.75;;;24.20;67.10;;;;;;5020824;28;20187;-73
2023/07/11 00:20:17;;;;;;;4.03;3.72;;;24.20;67.20;;;;;;5018048;28;20183;-73
2023/07/11 00:22:44;;;;;;;3.80;3.50;;;24.30;67.30;;;;;;5036777;28;20204;-73
2023/07/11 00:25:12;;;;;;;4.05;3.75;;;24.20;67.10;;;;;;5011520;28;20222;-73
2023/07/11 00:27:38;;;;;;;4.13;3.83;;;24.20;67.20;;;;;;5045417;28;20174;-73
2023/07/11 00:30:06;;;;;;;4.65;4.25;;;24.20;67.20;;;;;;5060127;22;20203;-69
2023/07/11 00:32:33;;;;;;;4.10;3.80;;;24.20;67.20;;;;;;5014108;28;20208;-69
2023/07/11 00:34:59;;;;;;;4.03;3.72;;;24.20;67.20;;;;;;5003964;28;20231;-69
2023/07/11 00:37:25;;;;;;;3.97;3.60;;;24.20;67.20;;;;;;5005668;28;20568;-69
2023/07/11 00:39:51;;;;;;;4.43;4.03;;;24.20;67.20;;;;;;5026909;28;20184;-69
2023/07/11 00:42:16;;;;;;;4.35;4.05;;;24.20;67.20;;;;;;5013073;28;20675;-68
2023/07/11 00:45:04;;;;;;;4.22;3.50;;;24.20;67.10;;;;;;5012820;28;20613;-69
2023/07/11 00:47:30;;;;;;;4.40;3.60;;;24.20;67.20;;;;;;4997253;28;20188;-69
2023/07/11 00:50:07;;;;;;;3.90;3.60;;;24.20;67.20;;;;;;5018178;28;20259;-69
2023/07/11 00:52:36;;;;;;;4.25;3.88;;;24.20;67.20;;;;;;5005466;28;20184;-69
2023/07/11 00:55:11;;;;;;;4.13;3.75;;;24.20;67.10;;;;;;5012638;28;20706;-69
2023/07/11 00:57:42;;;;;;;4.10;3.80;;;24.20;67.20;;;;;;5013156;28;20187;-69
2023/07/11 01:00:09;;;;;;;4.68;4.00;;;24.20;67.20;;;;;;4996638;28;20191;-69
2023/07/11 01:02:36;;;;;;;3.83;3.42;;;24.20;67.20;;;;;;5012878;28;20200;-69
2023/07/11 01:05:03;;;;;;;4.30;4.00;;;24.20;67.20;;;;;;5004426;28;20192;-69
2023/07/11 01:07:36;;;;;;;3.88;3.58;;;24.20;67.20;;;;;;5012830;28;20787;-69
2023/07/11 01:10:04;;;;;;;3.70;3.40;;;24.20;67.20;;;;;;5012563;28;20199;-69
2023/07/11 01:12:31;;;;;;;4.10;3.80;;;24.20;67.20;;;;;;5021184;28;20180;-69
2023/07/11 01:14:57;;;;;;;3.80;3.50;;;24.20;67.20;;;;;;5025683;28;20188;-69
2023/07/11 01:17:29;;;;;;;4.20;3.80;;;24.20;67.20;;;;;;4996114;28;20196;-69
2023/07/11 01:19:58;;;;;;;3.58;3.30;;;24.20;67.10;;;;;;5012514;28;20267;-69
2023/07/11 01:22:26;;;;;;;3.72;3.42;;;24.20;67.10;;;;;;5011462;28;20204;-70
2023/07/11 01:24:56;;;;;;;3.80;3.45;;;24.20;67.10;;;;;;5011206;28;20263;-69
2023/07/11 01:27:23;;;;;;;3.92;3.63;;;24.20;67.10;;;;;;5003312;28;20288;-69
2023/07/11 01:29:51;;;;;;;8.85;3.65;;;24.10;67.10;;;;;;5010700;28;20361;-69
2023/07/11 01:32:17;;;;;;;4.18;3.88;;;24.20;67.20;;;;;;5011374;28;20659;-69
2023/07/11 01:34:44;;;;;;;4.10;3.80;;;24.10;67.00;;;;;;5011136;28;20254;-71
2023/07/11 01:37:09;;;;;;;4.15;3.80;;;24.10;67.10;;;;;;5006233;28;20240;-69
2023/07/11 01:39:35;;;;;;;3.72;3.42;;;24.10;67.10;;;;;;5003510;28;20227;-69
2023/07/11 01:42:01;;;;;;;4.15;3.85;;;24.10;67.10;;;;;;5003432;28;20251;-69
2023/07/11 01:44:28;;;;;;;4.15;3.70;;;24.10;67.10;;;;;;5003588;28;20184;-69
2023/07/11 01:46:55;;;;;;;3.90;3.60;;;24.20;67.10;;;;;;5017135;28;20276;-69
2023/07/11 01:49:20;;;;;;;3.72;3.42;;;24.10;67.00;;;;;;5011933;28;20661;-69
2023/07/11 01:51:46;;;;;;;4.03;3.65;;;24.10;67.90;;;;;;5012706;28;20222;-69
2023/07/11 01:54:13;;;;;;;3.92;3.50;;;24.10;67.10;;;;;;5010514;28;20196;-69
2023/07/11 01:56:39;;;;;;;3.70;3.40;;;24.20;67.20;;;;;;4994785;28;20200;-69
2023/07/11 01:59:06;;;;;;;3.85;3.53;;;24.10;67.20;;;;;;5012342;28;20247;-69
2023/07/11 02:01:32;;;;;;;3.95;3.65;;;24.10;67.10;;;;;;5010625;28;20314;-70
2023/07/11 02:03:58;;;;;;;3.55;3.25;;;24.10;67.10;;;;;;5010679;28;20192;-69
2023/07/11 02:06:24;;;;;;;3.90;3.60;;;24.10;67.10;;;;;;4994432;28;20199;-69
2023/07/11 02:08:50;;;;;;;3.80;3.50;;;24.10;67.00;;;;;;5010540;28;20194;-69
2023/07/11 02:11:15;;;;;;;3.80;3.50;;;24.10;67.90;;;;;;4994286;28;20204;-69
2023/07/11 02:13:41;;;;;;;3.53;3.33;;;24.10;67.00;;;;;;5006125;28;20214;-69
2023/07/11 02:16:07;;;;;;;3.75;3.45;;;24.10;67.10;;;;;;4994514;28;20188;-69
2023/07/11 02:18:34;;;;;;;3.75;3.45;;;24.10;67.10;;;;;;5010294;28;20322;-69
2023/07/11 02:21:00;;;;;;;3.83;3.53;;;24.10;67.10;;;;;;5002717;28;20215;-69
2023/07/11 02:23:26;;;;;;;3.60;3.30;;;24.10;67.10;;;;;;5010334;28;20211;-69
2023/07/11 02:25:53;;;;;;;3.55;3.25;;;24.20;67.20;;;;;;4994342;28;20668;-69
2023/07/11 02:28:21;;;;;;;3.55;3.25;;;24.10;67.10;;;;;;4993958;28;20241;-69
2023/07/11 02:30:47;;;;;;;3.80;3.50;;;24.10;67.10;;;;;;5010724;28;20265;-69
2023/07/11 02:33:13;;;;;;;3.90;3.60;;;24.10;67.20;;;;;;5018922;28;20191;-69
2023/07/11 02:35:39;;;;;;;3.70;3.40;;;24.10;67.10;;;;;;5008803;28;20196;-69
2023/07/11 02:38:05;;;;;;;3.75;3.45;;;24.10;67.10;;;;;;5006466;28;20249;-69
2023/07/11 02:40:31;;;;;;;4.63;3.75;;;24.10;67.10;;;;;;5009865;28;20212;-69
2023/07/11 02:42:56;;;;;;;4.00;3.60;;;24.10;67.10;;;;;;5010192;28;20587;-69
2023/07/11 02:45:23;;;;;;;3.65;3.38;;;24.10;67.10;;;;;;5010075;28;20271;-69
2023/07/11 02:47:49;;;;;;;3.65;3.35;;;24.10;67.10;;;;;;5011461;28;20271;-69
2023/07/11 02:50:14;;;;;;;3.70;3.40;;;24.10;67.10;;;;;;5010048;28;20700;-70
2023/07/11 02:52:40;;;;;;;3.63;3.33;;;24.10;67.10;;;;;;5002347;28;20256;-69
2023/07/11 02:55:07;;;;;;;3.72;3.42;;;24.10;67.10;;;;;;5004898;28;20195;-69
2023/07/11 02:57:33;;;;;;;3.83;3.53;;;24.10;67.10;;;;;;5009797;28;20242;-69
2023/07/11 02:59:59;;;;;;;3.35;3.15;;;24.10;67.10;;;;;;5009798;28;20179;-69
2023/07/11 03:02:24;;;;;;;3.90;3.60;;;24.10;67.10;;;;;;5020190;28;20203;-69
2023/07/11 03:04:51;;;;;;;3.70;3.40;;;24.10;67.10;;;;;;5014324;28;20677;-69
2023/07/11 03:07:18;;;;;;;3.50;3.20;;;24.10;67.00;;;;;;5014157;28;20192;-69
2023/07/11 03:09:43;;;;;;;3.90;3.60;;;24.10;67.10;;;;;;5009149;28;20179;-69
2023/07/11 03:12:10;;;;;;;3.55;3.25;;;24.10;67.10;;;;;;5010057;28;20307;-69
2023/07/11 03:14:37;;;;;;;3.58;3.28;;;24.10;67.10;;;;;;5009650;28;20199;-70
2023/07/11 03:17:03;;;;;;;4.78;3.40;;;24.10;67.00;;;;;;5011490;28;20742;-69
2023/07/11 03:19:28;;;;;;;3.47;3.25;;;24.10;67.10;;;;;;5001716;28;20271;-69
2023/07/11 03:21:54;;;;;;;3.45;3.17;;;24.10;67.10;;;;;;5009864;28;20593;-69
2023/07/11 03:24:20;;;;;;;3.70;3.40;;;24.10;67.10;;;;;;5020212;28;20201;-69
2023/07/11 03:26:47;;;;;;;3.50;3.20;;;24.10;67.00;;;;;;4997512;28;20266;-69
2023/07/11 03:29:14;;;;;;;3.80;3.50;;;24.10;67.10;;;;;;4997287;28;20199;-69
2023/07/11 03:31:40;;;;;;;3.60;3.30;;;24.10;67.10;;;;;;5018927;28;20219;-69
2023/07/11 03:34:06;;;;;;;3.20;3.00;;;24.10;67.10;;;;;;5025656;28;20586;-69
2023/07/11 03:36:32;;;;;;;3.42;3.13;;;24.10;67.10;;;;;;5008029;28;20195;-69
2023/07/11 03:38:57;;;;;;;4.00;3.70;;;24.10;67.10;;;;;;5009601;28;20192;-69
2023/07/11 03:41:23;;;;;;;3.72;3.53;;;24.00;67.00;;;;;;5009455;28;20216;-69
2023/07/11 03:43:49;;;;;;;4.07;3.40;;;24.10;67.10;;;;;;5010629;28;20196;-69
2023/07/11 03:46:15;;;;;;;3.60;3.30;;;24.00;66.90;;;;;;5009413;28;20188;-69
2023/07/11 03:48:40;;;;;;;4.15;3.33;;;24.10;67.10;;;;;;5009233;28;20188;-69
2023/07/11 03:51:06;;;;;;;3.47;3.17;;;24.00;67.00;;;;;;5009518;28;20208;-69
2023/07/11 03:53:32;;;;;;;3.88;3.58;;;24.00;67.80;;;;;;4995807;28;20192;-69
2023/07/11 03:55:57;;;;;;;3.70;3.42;;;24.00;67.00;;;;;;5013127;28;20222;-69
2023/07/11 03:58:24;;;;;;;3.60;3.30;;;24.00;67.00;;;;;;5004826;28;20188;-69
2023/07/11 04:00:50;;;;;;;3.33;3.10;;;24.10;67.10;;;;;;5017457;28;20251;-69
2023/07/11 04:03:16;;;;;;;3.63;3.33;;;24.00;67.10;;;;;;5016620;28;20211;-69
2023/07/11 04:05:42;;;;;;;3.50;3.20;;;24.10;67.10;;;;;;5012349;28;20663;-69
2023/07/11 04:08:08;;;;;;;3.35;3.15;;;24.00;67.10;;;;;;5013459;28;20188;-69
2023/07/11 04:10:35;;;;;;;3.58;3.28;;;24.10;67.10;;;;;;5012819;28;20204;-69
2023/07/11 04:13:02;;;;;;;3.65;3.35;;;24.00;67.10;;;;;;4996925;28;20183;-69
2023/07/11 04:15:28;;;;;;;3.65;3.35;;;24.00;67.00;;;;;;5006416;28;20764;-69
2023/07/11 04:17:54;;;;;;;3.72;3.42;;;24.00;67.00;;;;;;5013050;28;20195;-69
2023/07/11 04:20:20;;;;;;;3.67;3.40;;;24.00;67.00;;;;;;5018960;28;20211;-70
2023/07/11 04:22:46;;;;;;;3.60;3.30;;;24.00;67.10;;;;;;5006906;28;20257;-68
2023/07/11 04:25:12;;;;;;;3.95;3.65;;;24.00;67.00;;;;;;5013338;28;20218;-69
2023/07/11 04:27:38;;;;;;;3.63;3.05;;;24.00;67.00;;;;;;5013719;28;20192;-68
2023/07/11 04:30:05;;;;;;;3.38;3.17;;;24.00;67.10;;;;;;5030062;28;20180;-68
2023/07/11 04:32:31;;;;;;;3.80;3.50;;;24.00;67.10;;;;;;5005619;28;20192;-69
2023/07/11 04:34:56;;;;;;;3.80;3.50;;;24.00;67.00;;;;;;5009877;28;20251;-69
2023/07/11 04:37:22;;;;;;;3.58;3.28;;;24.00;67.00;;;;;;5013019;28;20196;-69
2023/07/11 04:39:48;;;;;;;3.25;3.03;;;24.00;67.00;;;;;;5013299;28;20196;-69
2023/07/11 04:42:13;;;;;;;3.42;3.15;;;24.00;67.10;;;;;;5004415;28;20215;-69
2023/07/11 04:44:39;;;;;;;3.78;3.47;;;24.00;67.00;;;;;;4997307;28;20207;-69
2023/07/11 04:47:06;;;;;;;4.38;3.97;;;24.00;67.00;;;;;;5013215;28;20234;-70
2023/07/11 04:49:32;;;;;;;4.32;3.95;;;24.00;67.00;;;;;;5012868;28;20604;-69
2023/07/11 04:51:58;;;;;;;3.83;3.53;;;24.00;67.00;;;;;;5013488;28;20215;-69
2023/07/11 04:54:23;;;;;;;4.03;3.72;;;24.00;67.00;;;;;;5020965;28;20257;-68
2023/07/11 04:56:58;;;;;;;3.83;3.53;;;24.00;67.00;;;;;;5016889;28;20278;-69
2023/07/11 04:59:25;;;;;;;3.50;3.28;;;24.00;67.00;;;;;;4993407;28;20191;-69
2023/07/11 05:01:51;;;;;;;3.67;3.38;;;24.10;67.10;;;;;;5013652;28;20208;-69
2023/07/11 05:04:18;;;;;;;4.00;3.70;;;24.00;67.00;;;;;;5011274;28;20199;-69
2023/07/11 05:06:44;;;;;;;3.85;3.55;;;24.00;66.90;;;;;;4996135;28;20196;-70
2023/07/11 05:09:10;;;;;;;3.72;3.53;;;24.00;66.90;;;;;;5003942;28;20290;-68
2023/07/11 05:11:36;;;;;;;3.90;3.60;;;24.00;66.90;;;;;;5012745;28;20307;-68
2023/07/11 05:14:03;;;;;;;3.80;3.50;;;24.00;66.90;;;;;;5012406;28;20184;-69
2023/07/11 05:16:31;;;;;;;3.97;3.67;;;24.00;66.90;;;;;;4998014;28;20192;-68
2023/07/11 05:18:58;;;;;;;3.72;3.42;;;24.00;66.90;;;;;;5004757;28;20185;-69
2023/07/11 05:21:26;;;;;;;3.80;3.50;;;24.00;66.90;;;;;;4991902;28;20208;-68
2023/07/11 05:23:55;;;;;;;3.80;3.50;;;24.00;67.70;;;;;;5011603;28;20188;-69
2023/07/11 05:26:21;;;;;;;4.03;3.72;;;24.00;66.90;;;;;;5011731;28;20238;-68
2023/07/11 05:28:48;;;;;;;3.97;3.60;;;24.00;66.90;;;;;;5006621;28;20278;-69
2023/07/11 05:31:14;;;;;;;4.18;3.78;;;24.00;66.90;;;;;;5010871;28;20223;-68
2023/07/11 05:33:39;;;;;;;3.72;3.42;;;24.00;66.90;;;;;;5011043;28;20230;-68
2023/07/11 05:36:20;;;;;;;3.65;3.38;;;24.00;67.00;;;;;;5011237;28;20188;-69
2023/07/11 05:38:48;;;;;;;3.80;3.50;;;24.00;67.00;;;;;;5011126;28;20188;-69
2023/07/11 05:41:14;;;;;;;3.65;3.35;;;24.00;67.00;;;;;;5026419;28;20212;-69
2023/07/11 05:43:40;;;;;;;4.55;3.72;;;24.00;67.00;;;;;;5011070;28;20530;-68
2023/07/11 05:46:05;;;;;;;4.68;3.97;;;24.00;67.00;;;;;;5011157;28;20613;-69
2023/07/11 05:48:32;;;;;;;4.03;3.63;;;24.00;67.10;;;;;;5009823;28;20188;-69
2023/07/11 05:51:09;;;;;;;3.78;3.47;;;24.00;67.90;;;;;;5011816;28;20203;-69
2023/07/11 05:53:35;;;;;;;3.90;3.60;;;24.00;67.10;;;;;;5010757;28;20215;-69
2023/07/11 05:56:01;;;;;;;3.60;3.40;;;24.00;67.10;;;;;;4994481;28;20196;-71
2023/07/11 05:58:29;;;;;;;4.55;3.95;;;24.00;67.10;;;;;;5010013;28;20196;-71
2023/07/11 06:00:56;;;;;;;3.97;3.67;;;24.10;67.30;;;;;;5002499;28;20211;-68
2023/07/11 06:03:25;;;;;;;3.80;3.50;;;24.00;67.10;;;;;;4998351;28;20298;-69
2023/07/11 06:05:53;;;;;;;3.80;3.50;;;24.00;66.90;;;;;;5028930;28;20199;-69
2023/07/11 06:08:19;;;;;;;3.67;3.28;;;24.00;66.90;;;;;;4994301;28;20184;-69
2023/07/11 06:10:45;;;;;;;4.05;3.65;;;24.00;66.80;;;;;;5010530;28;20290;-69
2023/07/11 06:13:14;;;;;;;3.50;3.20;;;24.00;66.80;;;;;;4994577;28;20288;-69
2023/07/11 06:15:40;;;;;;;3.88;3.40;;;24.10;67.00;;;;;;5009770;28;20242;-69
2023/07/11 06:18:07;;;;;;;4.25;3.20;;;24.10;66.80;;;;;;5012013;28;20189;-69
2023/07/11 06:20:33;;;;;;;3.47;3.28;;;24.00;66.60;;;;;;4994034;28;20208;-69
2023/07/11 06:23:00;;;;;;;3.92;3.60;;;24.10;66.70;;;;;;5009765;28;20218;-69
2023/07/11 06:25:26;;;;;;;3.65;3.35;;;24.00;66.60;;;;;;5017931;28;20184;-69
2023/07/11 06:27:52;;;;;;;3.38;3.15;;;24.10;66.60;;;;;;4994088;28;20188;-69
2023/07/11 06:32:49;;;;;;;3.97;3.40;;;24.10;66.70;;;;;;5017561;28;20215;-74
2023/07/11 06:35:15;;;;;;;4.50;3.90;;;24.00;66.40;;;;;;5013601;28;20203;-74
2023/07/11 06:37:41;;;;;;;3.47;3.20;;;24.10;66.50;;;;;;5026837;28;20199;-74
2023/07/11 06:40:08;;;;;;;4.20;3.80;;;24.10;66.60;;;;;;5019829;28;20227;-74
2023/07/11 06:42:35;;;;;;;4.10;3.70;;;24.10;66.60;;;;;;4992881;28;20223;-74
2023/07/11 06:45:00;;;;;;;3.42;3.13;;;24.10;66.60;;;;;;4989077;28;20192;-74
2023/07/11 06:47:26;;;;;;;3.90;3.60;;;24.10;66.60;;;;;;4998666;28;20188;-74
2023/07/11 06:49:52;;;;;;;4.00;3.45;;;24.10;66.70;;;;;;4991678;28;20184;-74
2023/07/11 06:52:17;;;;;;;3.85;3.50;;;24.10;66.60;;;;;;5029329;28;20225;-75
2023/07/11 06:54:43;;;;;;;4.22;3.92;;;24.10;66.60;;;;;;5007902;28;20667;-74
2023/07/11 06:57:09;;;;;;;3.42;3.22;;;24.10;66.70;;;;;;4988574;28;20189;-74
2023/07/11 06:59:35;;;;;;;4.03;3.72;;;24.10;66.70;;;;;;4990206;28;20668;-74
2023/07/11 07:02:00;;;;;;;3.92;3.53;;;24.10;66.70;;;;;;5002716;28;20223;-74
2023/07/11 07:04:26;;;;;;;4.25;3.95;;;24.10;66.80;;;;;;4993416;28;20196;-75
2023/07/11 07:06:52;;;;;;;4.03;3.58;;;24.10;66.80;;;;;;5026179;28;20192;-74
2023/07/11 07:09:18;;;;;;;3.92;3.63;;;24.10;66.80;;;;;;4995496;28;20184;-74
2023/07/11 07:11:44;;;;;;;3.88;3.58;;;24.10;66.80;;;;;;4990386;28;20596;-74
2023/07/11 07:14:10;;;;;;;4.00;3.70;;;24.10;66.70;;;;;;4991103;28;20193;-74
2023/07/11 07:16:39;;;;;;;3.42;3.22;;;24.10;66.70;;;;;;5007425;28;20215;-75
2023/07/11 07:19:08;;;;;;;4.00;3.70;;;24.10;66.80;;;;;;5009722;28;20196;-74
2023/07/11 07:21:34;;;;;;;3.70;3.40;;;24.10;66.80;;;;;;4992850;28;20299;-74
2023/07/11 07:24:00;;;;;;;3.58;3.28;;;24.10;66.80;;;;;;4991146;28;20643;-73
2023/07/11 07:26:26;;;;;;;3.50;3.20;;;24.10;66.80;;;;;;5013001;28;20247;-74
2023/07/11 07:28:52;;;;;;;3.97;3.67;;;24.10;66.80;;;;;;5000545;28;20261;-74
2023/07/11 07:31:17;;;;;;;3.97;3.60;;;24.10;66.80;;;;;;5019821;28;20216;-74
2023/07/11 07:33:43;;;;;;;4.05;3.72;;;24.10;66.80;;;;;;4989463;28;20288;-74
2023/07/11 07:36:12;;;;;;;4.25;3.85;;;24.10;66.80;;;;;;4997717;28;20243;-74
2023/07/11 07:38:39;;;;;;;4.47;4.07;;;24.10;66.80;;;;;;4995343;28;20212;-73
2023/07/11 07:41:08;;;;;;;4.22;3.90;;;24.10;66.80;;;;;;4981882;28;20220;-74
2023/07/11 07:43:43;;;;;;;3.67;3.38;;;24.10;66.80;;;;;;5004006;28;20213;-74
2023/07/11 07:46:15;;;;;;;4.28;3.88;;;24.10;66.80;;;;;;5009483;28;20187;-74
2023/07/11 07:48:41;;;;;;;4.50;4.10;;;24.20;66.90;;;;;;4992426;28;20193;-74
2023/07/11 07:51:14;;;;;;;5.07;3.63;;;24.10;66.90;;;;;;4981878;28;20204;-74
2023/07/11 07:53:40;;;;;;;4.22;3.85;;;24.10;66.80;;;;;;4998977;28;20196;-75
2023/07/11 07:56:15;;;;;;;3.92;3.63;;;24.10;66.80;;;;;;4985596;28;20188;-74
2023/07/11 07:58:41;;;;;;;3.70;3.40;;;24.10;66.80;;;;;;4982334;28;20224;-74
2023/07/11 08:01:07;;;;;;;3.90;3.55;;;24.10;66.80;;;;;;5022539;28;20212;-74
2023/07/11 08:03:36;;;;;;;4.80;4.40;;;24.20;67.00;;;;;;5014511;28;20209;-75
2023/07/11 08:06:02;;;;;;;4.28;3.97;;;24.20;66.90;;;;;;4990769;28;20193;-74
2023/07/11 08:08:28;;;;;;;6.97;4.20;;;24.20;66.90;;;;;;4984571;28;20206;-75
2023/07/11 08:10:54;;;;;;;4.18;3.80;;;24.20;67.00;;;;;;5008836;28;20262;-75
2023/07/11 08:13:20;;;;;;;3.72;3.42;;;24.20;67.00;;;;;;5010605;28;20196;-75
2023/07/11 08:15:47;;;;;;;4.30;4.00;;;24.20;66.90;;;;;;5015076;28;20203;-74
2023/07/11 08:18:13;;;;;;;3.72;3.42;;;24.20;66.90;;;;;;4986263;28;20596;-75
2023/07/11 08:20:39;;;;;;;4.57;4.10;;;24.20;66.90;;;;;;4992732;28;20192;-74
2023/07/11 08:23:05;;;;;;;4.13;3.83;;;24.20;67.00;;;;;;5021269;28;20217;-74
2023/07/11 08:25:32;;;;;;;4.55;4.10;;;24.30;67.00;;;;;;4989094;28;20195;-74
2023/07/11 08:27:58;;;;;;;3.67;3.38;;;24.20;67.00;;;;;;5000861;28;20234;-75
2023/07/11 08:30:24;;;;;;;4.38;4.00;;;24.20;66.90;;;;;;4984204;28;20192;-75
2023/07/11 08:32:49;;;;;;;4.35;3.95;;;24.30;67.00;;;;;;5007663;28;20227;-75
2023/07/11 08:35:15;;;;;;;4.57;3.42;;;24.20;66.90;;;;;;5011338;28;20189;-75
2023/07/11 08:37:41;;;;;;;4.05;3.65;;;24.30;67.00;;;;;;5005572;28;20270;-74
2023/07/11 08:40:19;;;;;;;4.00;3.70;;;24.30;67.00;;;;;;4980792;28;20188;-75
2023/07/11 08:42:45;;;;;;;4.60;4.10;;;24.30;67.00;;;;;;5002228;28;20228;-75
2023/07/11 08:45:29;;;;;;;4.50;3.75;;;24.30;67.00;;;;;;4984028;28;20203;-75
2023/07/11 08:48:13;;;;;;;4.00;3.70;;;24.30;67.00;;;;;;5012063;28;20187;-74
2023/07/11 08:50:51;;;;;;;4.00;3.70;;;24.30;67.10;;;;;;4990323;28;20200;-74
2023/07/11 08:53:24;;;;;;;4.03;3.72;;;24.40;67.20;;;;;;5012689;28;20192;-75
2023/07/11 08:55:56;;;;;;;4.43;3.72;;;24.30;67.00;;;;;;4993506;28;20275;-74
2023/07/11 08:58:36;;;;;;;3.92;3.63;;;24.40;67.10;;;;;;5000691;28;20496;-74
2023/07/11 09:01:29;;;;;;;4.15;3.85;;;24.40;67.20;;;;;;5017267;28;20266;-72
2023/07/11 09:03:59;;;;;;;3.92;3.63;;;24.40;67.20;;;;;;5001533;28;20230;-75
2023/07/11 09:06:37;;;;;;;4.00;3.70;;;24.40;67.20;;;;;;4979689;28;20679;-75
2023/07/11 09:09:04;;;;;;;4.07;3.78;;;24.40;67.30;;;;;;5013208;28;20238;-75
2023/07/11 09:12:12;;;;;;;3.85;3.55;;;24.40;68.10;;;;;;4996454;28;20226;-74
2023/07/11 09:15:12;;;;;;;4.10;3.70;;;24.40;67.40;;;;;;4991458;28;20203;-73
2023/07/11 09:18:09;;;;;;;4.15;3.85;;;24.40;67.50;;;;;;5004586;28;20201;-72
2023/07/11 09:20:47;;;;;;;3.88;3.58;;;24.40;67.60;;;;;;5013513;28;20259;-74
2023/07/11 09:24:11;;;;;;;3.78;3.47;;;24.40;67.60;;;;;;5024818;28;20263;-73
2023/07/11 09:26:48;;;;;;;4.28;3.47;;;24.40;67.70;;;;;;4980362;28;20205;-75
2023/07/11 09:29:16;;;;;;;4.40;4.00;;;24.40;67.50;;;;;;4997824;28;20196;-74
2023/07/11 09:31:58;;;;;;;3.80;3.50;;;24.40;67.90;;;;;;4995348;28;20219;-73
2023/07/11 09:34:36;;;;;;;3.83;3.53;;;24.40;67.80;;;;;;4993238;28;20195;-74
2023/07/11 09:37:34;;;;;;;4.57;3.92;;;24.40;68.10;;;;;;5024638;28;20211;-74
2023/07/11 09:40:34;;;;;;;4.45;4.05;;;24.40;67.80;;;;;;4995179;28;20196;-75
2023/07/11 09:43:01;;;;;;;4.45;4.10;;;24.40;67.70;;;;;;4993038;28;20292;-74
2023/07/11 09:45:37;;;;;;;4.18;3.88;;;24.40;67.80;;;;;;4984262;28;20184;-74
2023/07/11 09:48:14;;;;;;;4.07;3.70;;;24.40;67.90;;;;;;5007657;28;20196;-74
2023/07/11 09:50:58;;;;;;;3.88;3.58;;;24.40;67.80;;;;;;5021384;28;20223;-72
2023/07/11 09:53:26;;;;;;;4.10;3.80;;;24.40;67.90;;;;;;5014222;28;20255;-74
2023/07/11 09:56:12;;;;;;;4.50;4.10;;;24.40;68.00;;;;;;5005804;28;20195;-74
2023/07/11 09:58:38;;;;;;;4.28;3.95;;;24.50;68.00;;;;;;5012833;28;20193;-74
2023/07/11 10:01:14;;;;;;;4.60;3.90;;;24.40;68.00;;;;;;4984725;28;20215;-73
2023/07/11 10:03:47;;;;;;;5.10;3.85;;;24.40;67.90;;;;;;5000315;28;20219;-72
2023/07/11 10:06:53;;;;;;;4.40;4.00;;;24.40;68.00;;;;;;5025014;28;20192;-73
2023/07/11 10:09:31;;;;;;;4.55;4.20;;;24.40;68.00;;;;;;4999958;28;20210;-73
2023/07/11 10:12:12;;;;;;;5.00;4.50;;;24.50;68.50;;;;;;4993224;28;20212;-73
2023/07/11 10:14:55;;;;;;;4.28;3.92;;;24.50;68.20;;;;;;4988243;28;20283;-74
2023/07/11 10:17:25;;;;;;;4.70;4.30;;;24.40;68.30;;;;;;5014087;28;20275;-75
2023/07/11 10:19:59;;;;;;;4.15;3.75;;;24.50;68.20;;;;;;5011410;28;20192;-74
2023/07/11 10:22:29;;;;;;;4.70;4.30;;;24.50;68.20;;;;;;5014214;28;20220;-74
2023/07/11 10:25:11;;;;;;;4.35;4.00;;;24.50;68.10;;;;;;5029434;28;20189;-75
2023/07/11 10:27:37;;;;;;;4.57;4.22;;;24.50;68.10;;;;;;5010619;28;20231;-74
2023/07/11 10:30:06;;;;;;;4.07;3.78;;;24.50;68.20;;;;;;5007128;28;20208;-74
2023/07/11 10:32:44;;;;;;;6.63;4.53;;;24.50;68.30;;;;;;5003491;28;20321;-74
2023/07/11 10:35:19;;;;;;;4.32;4.03;;;24.50;68.20;;;;;;5019522;28;20199;-74
2023/07/11 10:38:04;;;;;;;5.10;4.70;;;24.50;68.40;;;;;;5011078;28;20703;-74
2023/07/11 10:40:45;;;;;;;4.60;4.20;;;24.50;68.40;;;;;;5015687;28;20196;-74
2023/07/11 10:43:49;;;;;;;4.97;4.55;;;24.50;68.40;;;;;;5003625;28;20210;-74
2023/07/11 10:46:37;;;;;;;5.32;4.82;;;24.50;68.70;;;;;;4954765;28;20759;-74
2023/07/11 10:49:16;;;;;;;5.53;4.78;;;24.50;68.80;;;;;;4997251;28;20204;-74
2023/07/11 10:51:56;;;;;;;5.10;4.70;;;24.50;68.70;;;;;;4991402;28;20243;-74
2023/07/11 10:54:42;;;;;;;5.60;4.70;;;24.50;68.80;;;;;;5010599;28;20187;-75
2023/07/11 10:57:31;;;;;;;4.82;4.40;;;24.50;68.60;;;;;;5010845;28;20219;-74
2023/07/11 10:59:57;;;;;;;5.45;4.68;;;24.60;68.90;;;;;;5003506;28;20192;-74
2023/07/11 11:02:47;;;;;;;5.05;4.65;;;24.50;68.70;;;;;;5020913;28;20239;-74
2023/07/11 11:05:57;;;;;;;5.43;4.72;;;24.60;68.80;;;;;;5004407;28;20250;-74
2023/07/11 11:09:03;;;;;;;6.10;5.50;;;24.60;68.90;;;;;;4998594;28;20681;-74
2023/07/11 11:12:10;;;;;;;5.03;4.63;;;24.60;68.80;;;;;;4996972;28;20223;-74
2023/07/11 11:15:22;;;;;;;5.38;4.88;;;24.60;69.00;;;;;;4990779;28;20184;-74
2023/07/11 11:18:21;;;;;;;5.28;4.78;;;24.60;68.90;;;;;;5014384;28;20202;-74
2023/07/11 11:21:05;;;;;;;5.38;4.78;;;24.60;69.00;;;;;;5007241;28;20215;-73
2023/07/11 11:23:43;;;;;;;5.72;5.10;;;24.60;69.10;;;;;;5020208;28;20309;-74
2023/07/11 11:26:41;;;;;;;5.35;4.90;;;24.60;69.00;;;;;;4985553;28;20243;-74
2023/07/11 11:29:38;;;;;;;5.28;4.78;;;24.60;69.50;;;;;;4990644;28;20208;-75
2023/07/11 11:32:31;;;;;;;5.20;4.70;;;24.60;69.10;;;;;;5013011;28;20231;-74
2023/07/11 11:35:21;;;;;;;5.60;5.10;;;24.60;69.00;;;;;;5002159;28;20230;-74
2023/07/11 11:38:28;;;;;;;5.65;5.15;;;24.60;69.20;;;;;;5002878;28;20778;-72
2023/07/11 11:41:09;;;;;;;4.80;4.40;;;24.60;69.20;;;;;;5016097;28;20339;-73
2023/07/11 11:43:36;;;;;;;5.10;4.70;;;24.70;69.20;;;;;;5019601;28;20274;-74
2023/07/11 11:46:06;;;;;;;5.47;4.97;;;24.60;69.30;;;;;;5006316;28;20195;-74
2023/07/11 11:48:36;;;;;;;5.10;4.70;;;24.60;69.10;;;;;;5006173;28;20193;-74
2023/07/11 11:51:09;;;;;;;5.38;4.95;;;24.60;69.20;;;;;;5024125;28;20207;-73
2023/07/11 11:53:46;;;;;;;5.50;5.03;;;24.60;69.10;;;;;;4990824;28;20203;-74
2023/07/11 11:56:19;;;;;;;5.03;4.70;;;24.60;69.50;;;;;;5003338;28;20225;-74
2023/07/11 11:59:04;;;;;;;6.22;5.63;;;24.60;69.60;;;;;;5008439;28;20193;-74
2023/07/11 12:01:33;;;;;;;5.10;4.70;;;24.60;69.70;;;;;;5003460;28;20247;-74
2023/07/11 12:03:59;;;;;;;5.68;5.18;;;24.60;70.60;;;;;;4983191;28;20259;-73
2023/07/11 12:06:36;;;;;;;6.45;5.90;;;24.60;69.60;;;;;;5007012;28;20213;-73
2023/07/11 12:09:17;;;;;;;6.18;5.57;;;24.60;69.70;;;;;;4998521;28;20198;-73
2023/07/11 12:12:09;;;;;;;5.18;4.72;;;24.60;69.70;;;;;;5002228;28;20211;-73
2023/07/11 12:14:49;;;;;;;6.20;5.60;;;24.70;69.60;;;;;;5002720;28;20193;-73
2023/07/11 12:17:38;;;;;;;6.47;5.88;;;24.70;69.90;;;;;;4990732;28;20686;-74
2023/07/11 12:20:07;;;;;;;5.60;5.18;;;24.70;70.00;;;;;;5006109;28;20358;-74
2023/07/11 12:22:39;;;;;;;5.93;5.32;;;24.70;70.20;;;;;;5002984;28;20300;-75
2023/07/11 12:25:20;;;;;;;6.40;5.80;;;24.70;70.00;;;;;;4984556;28;20189;-74
2023/07/11 12:28:01;;;;;;;6.18;5.60;;;24.70;70.00;;;;;;5006758;28;20200;-74
2023/07/11 12:30:26;;;;;;;6.07;5.47;;;24.70;70.00;;;;;;5025066;28;20187;-74
2023/07/11 12:32:55;;;;;;;5.95;5.45;;;24.70;70.00;;;;;;5147813;22;20728;-69
2023/07/11 12:35:24;;;;;;;6.15;5.55;;;24.70;69.90;;;;;;5008034;28;20185;-71
2023/07/11 12:38:14;;;;;;;5.70;5.30;;;24.70;69.90;;;;;;4994030;28;20712;-69
2023/07/11 12:41:26;;;;;;;6.32;5.78;;;24.70;70.00;;;;;;5011849;28;20226;-70
2023/07/11 12:43:53;;;;;;;6.00;5.50;;;24.70;70.10;;;;;;4981741;28;20232;-69
2023/07/11 12:46:36;;;;;;;5.53;5.03;;;24.70;70.00;;;;;;4993618;28;20184;-69
2023/07/11 12:49:14;;;;;;;6.15;5.55;;;24.70;70.20;;;;;;5007682;28;20189;-70
2023/07/11 12:51:40;;;;;;;5.97;5.50;;;24.70;70.00;;;;;;4991067;28;20209;-70
2023/07/11 12:54:16;;;;;;;6.18;5.68;;;24.70;70.00;;;;;;5005728;28;20243;-70
2023/07/11 12:56:47;;;;;;;5.72;5.22;;;24.70;70.00;;;;;;4982960;28;20189;-70
2023/07/11 12:59:25;;;;;;;6.05;5.55;;;24.70;70.20;;;;;;4980015;28;20228;-70
2023/07/11 13:01:54;;;;;;;5.88;5.45;;;24.70;70.00;;;;;;4996443;28;20220;-70
2023/07/11 13:04:30;;;;;;;6.32;5.72;;;24.80;70.30;;;;;;4984575;28;20191;-69
2023/07/11 13:06:57;;;;;;;6.07;5.63;;;24.80;70.30;;;;;;4989733;28;20196;-69
2023/07/11 13:09:24;;;;;;;6.20;5.50;;;24.80;70.30;;;;;;4985727;28;20276;-69
2023/07/11 13:11:54;;;;;;;6.28;5.78;;;24.80;70.10;;;;;;4989032;28;20213;-69